sensor_id;sensor_type;location;lat;lon;timestamp;temperature;humidity
30304;DHT22;17112;48.636;10.152;2023-10-19T00:00:34;12.30;73.90
30304;DHT22;17112;48.636;10.152;2023-10-19T00:03:02;12.20;73.80
30304;DHT22;17112;48.636;10.152;2023-10-19T00:05:34;12.20;73.90
30304;DHT22;17112;48.636;10.152;2023-10-19T00:08:05;12.20;74.10
30304;DHT22;17112;48.636;10.152;2023-10-19T00:10:32;12.20;74.10
30304;DHT22;17112;48.636;10.152;2023-10-19T00:13:01;12.20;74.10
30304;DHT22;17112;48.636;10.152;2023-10-19T00:15:34;12.30;74.20
30304;DHT22;17112;48.636;10.152;2023-10-19T00:18:03;12.30;74.30
30304;DHT22;17112;48.636;10.152;2023-10-19T00:20:51;12.30;74.00
30304;DHT22;17112;48.636;10.152;2023-10-19T00:23:19;12.30;74.00
30304;DHT22;17112;48.636;10.152;2023-10-19T00:25:54;12.30;74.00
30304;DHT22;17112;48.636;10.152;2023-10-19T00:28:20;12.30;74.00
30304;DHT22;17112;48.636;10.152;2023-10-19T00:30:48;12.30;74.20
30304;DHT22;17112;48.636;10.152;2023-10-19T00:33:15;12.30;74.30
30304;DHT22;17112;48.636;10.152;2023-10-19T00:35:50;12.30;74.20
30304;DHT22;17112;48.636;10.152;2023-10-19T00:38:44;12.30;74.30
30304;DHT22;17112;48.636;10.152;2023-10-19T00:41:25;12.40;74.10
30304;DHT22;17112;48.636;10.152;2023-10-19T00:44:00;12.40;74.10
30304;DHT22;17112;48.636;10.152;2023-10-19T00:46:33;12.40;74.20
30304;DHT22;17112;48.636;10.152;2023-10-19T00:49:09;12.40;74.10
30304;DHT22;17112;48.636;10.152;2023-10-19T00:54:26;12.40;74.30
30304;DHT22;17112;48.636;10.152;2023-10-19T00:57:06;12.40;74.20
30304;DHT22;17112;48.636;10.152;2023-10-19T00:59:38;12.40;74.10
30304;DHT22;17112;48.636;10.152;2023-10-19T01:02:20;12.40;74.20
30304;DHT22;17112;48.636;10.152;2023-10-19T01:04:50;12.40;74.10
30304;DHT22;17112;48.636;10.152;2023-10-19T01:07:25;12.40;74.10
30304;DHT22;17112;48.636;10.152;2023-10-19T01:10:00;12.40;74.10
30304;DHT22;17112;48.636;10.152;2023-10-19T01:12:27;12.40;73.70
30304;DHT22;17112;48.636;10.152;2023-10-19T01:15:15;12.30;73.60
30304;DHT22;17112;48.636;10.152;2023-10-19T01:18:07;12.30;74.00
30304;DHT22;17112;48.636;10.152;2023-10-19T01:20:36;12.20;73.50
30304;DHT22;17112;48.636;10.152;2023-10-19T01:23:16;12.10;73.40
30304;DHT22;17112;48.636;10.152;2023-10-19T01:26:02;12.10;73.60
30304;DHT22;17112;48.636;10.152;2023-10-19T01:28:38;12.10;73.70
30304;DHT22;17112;48.636;10.152;2023-10-19T01:31:22;12.00;74.40
30304;DHT22;17112;48.636;10.152;2023-10-19T01:34:00;12.00;74.40
30304;DHT22;17112;48.636;10.152;2023-10-19T01:36:32;12.00;74.40
30304;DHT22;17112;48.636;10.152;2023-10-19T01:39:10;12.00;74.50
30304;DHT22;17112;48.636;10.152;2023-10-19T01:41:37;12.00;74.80
30304;DHT22;17112;48.636;10.152;2023-10-19T01:44:03;12.00;74.90
30304;DHT22;17112;48.636;10.152;2023-10-19T01:46:34;12.00;74.90
30304;DHT22;17112;48.636;10.152;2023-10-19T01:49:01;12.00;75.10
30304;DHT22;17112;48.636;10.152;2023-10-19T01:51:29;12.10;75.10
30304;DHT22;17112;48.636;10.152;2023-10-19T01:53:56;12.10;75.10
30304;DHT22;17112;48.636;10.152;2023-10-19T01:56:23;12.10;75.20
30304;DHT22;17112;48.636;10.152;2023-10-19T01:58:49;12.10;75.10
30304;DHT22;17112;48.636;10.152;2023-10-19T02:01:17;12.10;74.80
30304;DHT22;17112;48.636;10.152;2023-10-19T02:04:03;12.10;74.80
30304;DHT22;17112;48.636;10.152;2023-10-19T02:06:33;12.20;75.00
30304;DHT22;17112;48.636;10.152;2023-10-19T02:09:05;12.20;75.10
30304;DHT22;17112;48.636;10.152;2023-10-19T02:12:03;12.20;75.30
30304;DHT22;17112;48.636;10.152;2023-10-19T02:14:32;12.20;75.00
30304;DHT22;17112;48.636;10.152;2023-10-19T02:17:00;12.30;75.10
30304;DHT22;17112;48.636;10.152;2023-10-19T02:19:28;12.30;75.20
30304;DHT22;17112;48.636;10.152;2023-10-19T02:21:56;12.30;75.20
30304;DHT22;17112;48.636;10.152;2023-10-19T02:24:22;12.30;75.10
30304;DHT22;17112;48.636;10.152;2023-10-19T02:26:50;12.30;74.60
30304;DHT22;17112;48.636;10.152;2023-10-19T02:29:19;12.30;74.80
30304;DHT22;17112;48.636;10.152;2023-10-19T02:31:45;12.30;74.80
30304;DHT22;17112;48.636;10.152;2023-10-19T02:34:13;12.30;74.80
30304;DHT22;17112;48.636;10.152;2023-10-19T02:36:41;12.30;74.80
30304;DHT22;17112;48.636;10.152;2023-10-19T02:39:09;12.30;74.90
30304;DHT22;17112;48.636;10.152;2023-10-19T02:41:37;12.30;75.00
30304;DHT22;17112;48.636;10.152;2023-10-19T02:44:03;12.30;75.00
30304;DHT22;17112;48.636;10.152;2023-10-19T02:46:36;12.30;75.00
30304;DHT22;17112;48.636;10.152;2023-10-19T02:49:05;12.30;75.00
30304;DHT22;17112;48.636;10.152;2023-10-19T02:51:35;12.30;75.00
30304;DHT22;17112;48.636;10.152;2023-10-19T02:54:02;12.30;75.00
30304;DHT22;17112;48.636;10.152;2023-10-19T02:56:28;12.40;75.10
30304;DHT22;17112;48.636;10.152;2023-10-19T02:58:56;12.40;75.10
30304;DHT22;17112;48.636;10.152;2023-10-19T03:01:29;12.40;75.10
30304;DHT22;17112;48.636;10.152;2023-10-19T03:03:57;12.40;75.00
30304;DHT22;17112;48.636;10.152;2023-10-19T03:06:29;12.40;75.00
30304;DHT22;17112;48.636;10.152;2023-10-19T03:08:59;12.40;75.10
30304;DHT22;17112;48.636;10.152;2023-10-19T03:11:30;12.40;75.00
30304;DHT22;17112;48.636;10.152;2023-10-19T03:14:00;12.40;74.90
30304;DHT22;17112;48.636;10.152;2023-10-19T03:16:30;12.50;74.90
30304;DHT22;17112;48.636;10.152;2023-10-19T03:18:56;12.50;74.90
30304;DHT22;17112;48.636;10.152;2023-10-19T03:21:21;12.50;74.90
30304;DHT22;17112;48.636;10.152;2023-10-19T03:23:55;12.40;74.80
30304;DHT22;17112;48.636;10.152;2023-10-19T03:26:22;12.50;74.90
30304;DHT22;17112;48.636;10.152;2023-10-19T03:28:59;12.50;74.80
30304;DHT22;17112;48.636;10.152;2023-10-19T03:31:33;12.50;74.70
30304;DHT22;17112;48.636;10.152;2023-10-19T03:34:02;12.50;74.50
30304;DHT22;17112;48.636;10.152;2023-10-19T03:36:31;12.50;74.50
30304;DHT22;17112;48.636;10.152;2023-10-19T03:38:58;12.40;74.40
30304;DHT22;17112;48.636;10.152;2023-10-19T03:41:37;12.40;74.50
30304;DHT22;17112;48.636;10.152;2023-10-19T03:44:04;12.40;74.50
30304;DHT22;17112;48.636;10.152;2023-10-19T03:46:30;12.40;74.60
30304;DHT22;17112;48.636;10.152;2023-10-19T03:48:59;12.40;74.70
30304;DHT22;17112;48.636;10.152;2023-10-19T03:51:29;12.40;74.80
30304;DHT22;17112;48.636;10.152;2023-10-19T03:54:06;12.40;74.70
30304;DHT22;17112;48.636;10.152;2023-10-19T03:56:49;12.40;74.80
30304;DHT22;17112;48.636;10.152;2023-10-19T03:59:16;12.40;74.70
30304;DHT22;17112;48.636;10.152;2023-10-19T04:01:43;12.40;74.70
30304;DHT22;17112;48.636;10.152;2023-10-19T04:04:11;12.40;74.70
30304;DHT22;17112;48.636;10.152;2023-10-19T04:06:37;12.40;74.70
30304;DHT22;17112;48.636;10.152;2023-10-19T04:09:04;12.40;74.60
30304;DHT22;17112;48.636;10.152;2023-10-19T04:11:32;12.40;74.60
30304;DHT22;17112;48.636;10.152;2023-10-19T04:14:10;12.40;74.60
30304;DHT22;17112;48.636;10.152;2023-10-19T04:16:36;12.40;74.60
30304;DHT22;17112;48.636;10.152;2023-10-19T04:19:02;12.30;74.70
30304;DHT22;17112;48.636;10.152;2023-10-19T04:21:30;12.30;74.60
30304;DHT22;17112;48.636;10.152;2023-10-19T04:23:56;12.30;74.60
30304;DHT22;17112;48.636;10.152;2023-10-19T04:26:22;12.30;74.60
30304;DHT22;17112;48.636;10.152;2023-10-19T04:28:50;12.30;74.50
30304;DHT22;17112;48.636;10.152;2023-10-19T04:31:16;12.30;74.20
30304;DHT22;17112;48.636;10.152;2023-10-19T04:33:43;12.20;74.10
30304;DHT22;17112;48.636;10.152;2023-10-19T04:36:12;12.20;74.20
30304;DHT22;17112;48.636;10.152;2023-10-19T04:38:38;12.20;74.30
30304;DHT22;17112;48.636;10.152;2023-10-19T04:41:07;12.10;74.40
30304;DHT22;17112;48.636;10.152;2023-10-19T04:43:37;12.10;74.70
30304;DHT22;17112;48.636;10.152;2023-10-19T04:46:08;12.00;74.70
30304;DHT22;17112;48.636;10.152;2023-10-19T04:48:37;12.00;74.80
30304;DHT22;17112;48.636;10.152;2023-10-19T04:51:05;12.00;74.70
30304;DHT22;17112;48.636;10.152;2023-10-19T04:53:32;12.00;74.60
30304;DHT22;17112;48.636;10.152;2023-10-19T04:55:58;12.00;74.80
30304;DHT22;17112;48.636;10.152;2023-10-19T04:58:26;12.00;74.80
30304;DHT22;17112;48.636;10.152;2023-10-19T05:00:53;12.00;74.80
30304;DHT22;17112;48.636;10.152;2023-10-19T05:03:19;11.90;74.60
30304;DHT22;17112;48.636;10.152;2023-10-19T05:05:45;11.90;74.50
30304;DHT22;17112;48.636;10.152;2023-10-19T05:08:11;11.90;74.60
30304;DHT22;17112;48.636;10.152;2023-10-19T05:10:37;11.80;74.80
30304;DHT22;17112;48.636;10.152;2023-10-19T05:13:03;11.90;75.00
30304;DHT22;17112;48.636;10.152;2023-10-19T05:15:29;11.80;75.10
30304;DHT22;17112;48.636;10.152;2023-10-19T05:17:55;11.90;75.20
30304;DHT22;17112;48.636;10.152;2023-10-19T05:20:21;11.80;75.40
30304;DHT22;17112;48.636;10.152;2023-10-19T05:22:47;11.80;75.50
30304;DHT22;17112;48.636;10.152;2023-10-19T05:25:13;11.80;75.50
30304;DHT22;17112;48.636;10.152;2023-10-19T05:27:39;11.80;75.70
30304;DHT22;17112;48.636;10.152;2023-10-19T05:30:05;11.80;75.70
30304;DHT22;17112;48.636;10.152;2023-10-19T05:32:35;11.80;75.70
30304;DHT22;17112;48.636;10.152;2023-10-19T05:35:02;11.90;75.80
30304;DHT22;17112;48.636;10.152;2023-10-19T05:37:30;11.90;75.70
30304;DHT22;17112;48.636;10.152;2023-10-19T05:39:56;11.90;75.60
30304;DHT22;17112;48.636;10.152;2023-10-19T05:42:22;11.90;75.60
30304;DHT22;17112;48.636;10.152;2023-10-19T05:44:47;11.90;75.50
30304;DHT22;17112;48.636;10.152;2023-10-19T05:47:18;11.90;75.50
30304;DHT22;17112;48.636;10.152;2023-10-19T05:49:44;12.00;75.50
30304;DHT22;17112;48.636;10.152;2023-10-19T05:52:09;12.00;75.50
30304;DHT22;17112;48.636;10.152;2023-10-19T05:54:36;12.00;75.50
30304;DHT22;17112;48.636;10.152;2023-10-19T05:57:03;12.00;75.50
30304;DHT22;17112;48.636;10.152;2023-10-19T05:59:33;12.00;75.50
30304;DHT22;17112;48.636;10.152;2023-10-19T06:01:59;12.00;75.40
30304;DHT22;17112;48.636;10.152;2023-10-19T06:04:24;12.00;75.40
30304;DHT22;17112;48.636;10.152;2023-10-19T06:06:50;12.00;75.50
30304;DHT22;17112;48.636;10.152;2023-10-19T06:09:17;12.00;75.50
30304;DHT22;17112;48.636;10.152;2023-10-19T06:11:43;12.00;75.50
30304;DHT22;17112;48.636;10.152;2023-10-19T06:14:09;12.00;75.50
30304;DHT22;17112;48.636;10.152;2023-10-19T06:16:35;12.10;75.50
30304;DHT22;17112;48.636;10.152;2023-10-19T06:19:01;12.00;75.50
30304;DHT22;17112;48.636;10.152;2023-10-19T06:21:26;12.10;75.60
30304;DHT22;17112;48.636;10.152;2023-10-19T06:23:52;12.10;75.50
30304;DHT22;17112;48.636;10.152;2023-10-19T06:26:19;12.10;75.40
30304;DHT22;17112;48.636;10.152;2023-10-19T06:28:44;12.10;75.40
30304;DHT22;17112;48.636;10.152;2023-10-19T06:31:10;12.20;75.50
30304;DHT22;17112;48.636;10.152;2023-10-19T06:33:36;12.20;75.50
30304;DHT22;17112;48.636;10.152;2023-10-19T06:36:06;12.20;75.50
30304;DHT22;17112;48.636;10.152;2023-10-19T06:38:32;12.30;75.60
30304;DHT22;17112;48.636;10.152;2023-10-19T06:40:59;12.30;75.50
30304;DHT22;17112;48.636;10.152;2023-10-19T06:43:25;12.30;75.60
30304;DHT22;17112;48.636;10.152;2023-10-19T06:45:55;12.30;75.60
30304;DHT22;17112;48.636;10.152;2023-10-19T06:48:21;12.40;75.60
30304;DHT22;17112;48.636;10.152;2023-10-19T06:50:47;12.40;75.50
30304;DHT22;17112;48.636;10.152;2023-10-19T06:53:12;12.50;75.50
30304;DHT22;17112;48.636;10.152;2023-10-19T06:55:38;12.50;75.50
30304;DHT22;17112;48.636;10.152;2023-10-19T06:58:04;12.60;75.50
30304;DHT22;17112;48.636;10.152;2023-10-19T07:00:31;12.60;75.30
30304;DHT22;17112;48.636;10.152;2023-10-19T07:02:59;12.70;75.40
30304;DHT22;17112;48.636;10.152;2023-10-19T07:05:28;12.70;75.20
30304;DHT22;17112;48.636;10.152;2023-10-19T07:07:57;12.80;75.10
30304;DHT22;17112;48.636;10.152;2023-10-19T07:10:25;12.90;75.00
30304;DHT22;17112;48.636;10.152;2023-10-19T07:12:53;12.90;74.60
30304;DHT22;17112;48.636;10.152;2023-10-19T07:15:20;12.90;74.30
30304;DHT22;17112;48.636;10.152;2023-10-19T07:17:48;13.00;74.40
30304;DHT22;17112;48.636;10.152;2023-10-19T07:20:16;13.00;74.50
30304;DHT22;17112;48.636;10.152;2023-10-19T07:22:58;13.10;74.40
30304;DHT22;17112;48.636;10.152;2023-10-19T07:25:28;13.10;74.50
30304;DHT22;17112;48.636;10.152;2023-10-19T07:27:55;13.20;74.40
30304;DHT22;17112;48.636;10.152;2023-10-19T07:30:21;13.30;74.30
30304;DHT22;17112;48.636;10.152;2023-10-19T07:32:48;13.30;74.00
30304;DHT22;17112;48.636;10.152;2023-10-19T07:35:21;13.40;73.70
30304;DHT22;17112;48.636;10.152;2023-10-19T07:37:48;13.40;73.60
30304;DHT22;17112;48.636;10.152;2023-10-19T07:40:15;13.50;73.60
30304;DHT22;17112;48.636;10.152;2023-10-19T07:42:41;13.50;73.60
30304;DHT22;17112;48.636;10.152;2023-10-19T07:45:08;13.50;73.60
30304;DHT22;17112;48.636;10.152;2023-10-19T07:47:38;13.50;73.40
30304;DHT22;17112;48.636;10.152;2023-10-19T07:50:09;13.50;73.20
30304;DHT22;17112;48.636;10.152;2023-10-19T07:52:45;13.50;73.20
30304;DHT22;17112;48.636;10.152;2023-10-19T07:55:12;13.50;73.30
30304;DHT22;17112;48.636;10.152;2023-10-19T07:57:38;13.50;73.40
30304;DHT22;17112;48.636;10.152;2023-10-19T08:00:07;13.60;73.60
30304;DHT22;17112;48.636;10.152;2023-10-19T08:02:34;13.60;73.60
30304;DHT22;17112;48.636;10.152;2023-10-19T08:05:00;13.60;73.50
30304;DHT22;17112;48.636;10.152;2023-10-19T08:07:28;13.60;73.50
30304;DHT22;17112;48.636;10.152;2023-10-19T08:09:54;13.70;73.30
30304;DHT22;17112;48.636;10.152;2023-10-19T08:12:20;13.70;73.30
30304;DHT22;17112;48.636;10.152;2023-10-19T08:14:48;13.70;73.20
30304;DHT22;17112;48.636;10.152;2023-10-19T08:17:14;13.70;73.20
30304;DHT22;17112;48.636;10.152;2023-10-19T08:19:40;13.70;73.00
30304;DHT22;17112;48.636;10.152;2023-10-19T08:22:06;13.70;73.00
30304;DHT22;17112;48.636;10.152;2023-10-19T08:24:33;13.70;73.20
30304;DHT22;17112;48.636;10.152;2023-10-19T08:27:01;13.70;73.20
30304;DHT22;17112;48.636;10.152;2023-10-19T08:29:26;13.70;73.20
30304;DHT22;17112;48.636;10.152;2023-10-19T08:31:52;13.70;73.40
30304;DHT22;17112;48.636;10.152;2023-10-19T08:34:18;13.70;73.40
30304;DHT22;17112;48.636;10.152;2023-10-19T08:36:45;13.80;73.60
30304;DHT22;17112;48.636;10.152;2023-10-19T08:39:12;13.80;73.60
30304;DHT22;17112;48.636;10.152;2023-10-19T08:41:39;13.80;73.70
30304;DHT22;17112;48.636;10.152;2023-10-19T08:44:07;13.80;73.70
30304;DHT22;17112;48.636;10.152;2023-10-19T08:46:45;13.80;73.60
30304;DHT22;17112;48.636;10.152;2023-10-19T08:49:16;13.80;73.80
30304;DHT22;17112;48.636;10.152;2023-10-19T08:51:46;13.90;73.50
30304;DHT22;17112;48.636;10.152;2023-10-19T08:54:12;13.80;73.50
30304;DHT22;17112;48.636;10.152;2023-10-19T08:56:40;13.90;73.60
30304;DHT22;17112;48.636;10.152;2023-10-19T08:59:26;13.80;73.50
30304;DHT22;17112;48.636;10.152;2023-10-19T09:02:00;13.90;73.50
30304;DHT22;17112;48.636;10.152;2023-10-19T09:04:26;13.80;73.80
30304;DHT22;17112;48.636;10.152;2023-10-19T09:06:53;13.90;73.70
30304;DHT22;17112;48.636;10.152;2023-10-19T09:09:20;13.90;73.70
30304;DHT22;17112;48.636;10.152;2023-10-19T09:11:47;13.90;74.40
30304;DHT22;17112;48.636;10.152;2023-10-19T09:14:14;13.90;73.80
30304;DHT22;17112;48.636;10.152;2023-10-19T09:16:56;13.90;73.80
30304;DHT22;17112;48.636;10.152;2023-10-19T09:19:48;13.90;74.30
30304;DHT22;17112;48.636;10.152;2023-10-19T09:22:14;13.90;74.50
30304;DHT22;17112;48.636;10.152;2023-10-19T09:24:52;13.90;74.20
30304;DHT22;17112;48.636;10.152;2023-10-19T09:27:21;14.00;74.40
30304;DHT22;17112;48.636;10.152;2023-10-19T09:29:48;14.00;74.50
30304;DHT22;17112;48.636;10.152;2023-10-19T09:32:13;14.10;74.50
30304;DHT22;17112;48.636;10.152;2023-10-19T09:34:40;14.10;74.50
30304;DHT22;17112;48.636;10.152;2023-10-19T09:37:09;14.10;74.40
30304;DHT22;17112;48.636;10.152;2023-10-19T09:39:35;14.20;74.40
30304;DHT22;17112;48.636;10.152;2023-10-19T09:42:05;14.20;74.20
30304;DHT22;17112;48.636;10.152;2023-10-19T09:44:41;14.30;74.30
30304;DHT22;17112;48.636;10.152;2023-10-19T09:47:11;14.30;74.50
30304;DHT22;17112;48.636;10.152;2023-10-19T09:49:42;14.40;74.50
30304;DHT22;17112;48.636;10.152;2023-10-19T09:52:09;14.40;74.30
30304;DHT22;17112;48.636;10.152;2023-10-19T09:54:57;14.50;74.30
30304;DHT22;17112;48.636;10.152;2023-10-19T09:57:48;14.60;74.30
30304;DHT22;17112;48.636;10.152;2023-10-19T10:00:17;14.60;74.00
30304;DHT22;17112;48.636;10.152;2023-10-19T10:02:49;14.70;73.80
30304;DHT22;17112;48.636;10.152;2023-10-19T10:10:52;14.70;73.50
30304;DHT22;17112;48.636;10.152;2023-10-19T10:15:53;14.70;73.30
30304;DHT22;17112;48.636;10.152;2023-10-19T10:18:25;14.80;73.30
30304;DHT22;17112;48.636;10.152;2023-10-19T10:23:56;14.80;73.10
30304;DHT22;17112;48.636;10.152;2023-10-19T10:26:24;14.70;73.40
30304;DHT22;17112;48.636;10.152;2023-10-19T10:31:46;14.80;73.90
30304;DHT22;17112;48.636;10.152;2023-10-19T10:37:07;14.90;73.80
30304;DHT22;17112;48.636;10.152;2023-10-19T10:39:38;14.90;73.70
30304;DHT22;17112;48.636;10.152;2023-10-19T10:42:08;15.00;74.60
30304;DHT22;17112;48.636;10.152;2023-10-19T10:44:50;15.00;73.70
30304;DHT22;17112;48.636;10.152;2023-10-19T10:47:22;15.00;73.60
30304;DHT22;17112;48.636;10.152;2023-10-19T10:49:54;15.10;73.50
30304;DHT22;17112;48.636;10.152;2023-10-19T10:54:50;15.20;73.50
30304;DHT22;17112;48.636;10.152;2023-10-19T10:57:16;15.20;73.60
30304;DHT22;17112;48.636;10.152;2023-10-19T10:59:41;15.30;73.80
30304;DHT22;17112;48.636;10.152;2023-10-19T11:02:19;15.40;73.90
30304;DHT22;17112;48.636;10.152;2023-10-19T11:04:47;15.50;74.40
30304;DHT22;17112;48.636;10.152;2023-10-19T11:07:19;15.60;74.20
30304;DHT22;17112;48.636;10.152;2023-10-19T11:09:46;15.70;73.90
30304;DHT22;17112;48.636;10.152;2023-10-19T11:12:13;15.80;73.60
30304;DHT22;17112;48.636;10.152;2023-10-19T11:14:55;15.90;73.50
30304;DHT22;17112;48.636;10.152;2023-10-19T11:17:21;16.00;73.80
30304;DHT22;17112;48.636;10.152;2023-10-19T11:19:58;16.10;73.40
30304;DHT22;17112;48.636;10.152;2023-10-19T11:22:25;16.20;73.00
30304;DHT22;17112;48.636;10.152;2023-10-19T11:24:52;16.30;72.80
30304;DHT22;17112;48.636;10.152;2023-10-19T11:27:28;16.40;72.60
30304;DHT22;17112;48.636;10.152;2023-10-19T11:29:58;16.50;72.20
30304;DHT22;17112;48.636;10.152;2023-10-19T11:32:25;16.50;71.90
30304;DHT22;17112;48.636;10.152;2023-10-19T11:34:55;16.50;71.70
30304;DHT22;17112;48.636;10.152;2023-10-19T11:37:21;16.60;71.70
30304;DHT22;17112;48.636;10.152;2023-10-19T11:39:47;16.60;71.90
30304;DHT22;17112;48.636;10.152;2023-10-19T11:42:15;16.60;71.60
30304;DHT22;17112;48.636;10.152;2023-10-19T11:44:41;16.60;71.30
30304;DHT22;17112;48.636;10.152;2023-10-19T11:47:06;16.60;71.20
30304;DHT22;17112;48.636;10.152;2023-10-19T11:49:32;16.60;71.20
30304;DHT22;17112;48.636;10.152;2023-10-19T11:51:58;16.60;71.30
30304;DHT22;17112;48.636;10.152;2023-10-19T11:54:24;16.60;71.50
30304;DHT22;17112;48.636;10.152;2023-10-19T11:56:51;16.60;71.60
30304;DHT22;17112;48.636;10.152;2023-10-19T11:59:18;16.60;71.60
30304;DHT22;17112;48.636;10.152;2023-10-19T12:01:44;16.60;71.50
30304;DHT22;17112;48.636;10.152;2023-10-19T12:04:09;16.50;71.50
30304;DHT22;17112;48.636;10.152;2023-10-19T12:06:35;16.50;71.60
30304;DHT22;17112;48.636;10.152;2023-10-19T12:09:01;16.50;71.70
30304;DHT22;17112;48.636;10.152;2023-10-19T12:11:40;16.50;71.90
30304;DHT22;17112;48.636;10.152;2023-10-19T12:14:06;16.50;72.20
30304;DHT22;17112;48.636;10.152;2023-10-19T12:16:37;16.50;72.30
30304;DHT22;17112;48.636;10.152;2023-10-19T12:19:04;16.40;72.40
30304;DHT22;17112;48.636;10.152;2023-10-19T12:21:30;16.40;72.40
30304;DHT22;17112;48.636;10.152;2023-10-19T12:23:56;16.40;72.40
30304;DHT22;17112;48.636;10.152;2023-10-19T12:26:24;16.40;72.40
30304;DHT22;17112;48.636;10.152;2023-10-19T12:28:50;16.40;72.50
30304;DHT22;17112;48.636;10.152;2023-10-19T12:31:16;16.40;72.60
30304;DHT22;17112;48.636;10.152;2023-10-19T12:33:44;16.40;73.00
30304;DHT22;17112;48.636;10.152;2023-10-19T12:36:10;16.50;73.30
30304;DHT22;17112;48.636;10.152;2023-10-19T12:38:55;16.50;73.70
30304;DHT22;17112;48.636;10.152;2023-10-19T12:41:21;16.50;73.60
30304;DHT22;17112;48.636;10.152;2023-10-19T12:43:47;16.60;73.60
30304;DHT22;17112;48.636;10.152;2023-10-19T12:46:14;16.70;73.70
30304;DHT22;17112;48.636;10.152;2023-10-19T12:48:41;16.80;73.90
30304;DHT22;17112;48.636;10.152;2023-10-19T12:51:07;16.80;73.70
30304;DHT22;17112;48.636;10.152;2023-10-19T12:53:34;16.90;73.60
30304;DHT22;17112;48.636;10.152;2023-10-19T12:56:00;16.90;73.50
30304;DHT22;17112;48.636;10.152;2023-10-19T12:58:26;17.00;73.00
30304;DHT22;17112;48.636;10.152;2023-10-19T13:00:53;17.00;72.70
30304;DHT22;17112;48.636;10.152;2023-10-19T13:03:21;17.10;72.60
30304;DHT22;17112;48.636;10.152;2023-10-19T13:05:47;17.10;72.60
30304;DHT22;17112;48.636;10.152;2023-10-19T13:08:15;17.10;72.60
30304;DHT22;17112;48.636;10.152;2023-10-19T13:10:43;17.10;72.50
30304;DHT22;17112;48.636;10.152;2023-10-19T13:13:11;17.10;72.40
30304;DHT22;17112;48.636;10.152;2023-10-19T13:15:38;17.20;72.40
30304;DHT22;17112;48.636;10.152;2023-10-19T13:18:08;17.20;72.20
30304;DHT22;17112;48.636;10.152;2023-10-19T13:20:39;17.20;72.10
30304;DHT22;17112;48.636;10.152;2023-10-19T13:23:09;17.10;71.90
30304;DHT22;17112;48.636;10.152;2023-10-19T13:25:41;17.10;71.90
30304;DHT22;17112;48.636;10.152;2023-10-19T13:28:12;17.00;71.90
30304;DHT22;17112;48.636;10.152;2023-10-19T13:30:39;17.00;72.00
30304;DHT22;17112;48.636;10.152;2023-10-19T13:33:06;17.00;72.10
30304;DHT22;17112;48.636;10.152;2023-10-19T13:35:37;16.90;72.10
30304;DHT22;17112;48.636;10.152;2023-10-19T13:38:08;16.90;72.20
30304;DHT22;17112;48.636;10.152;2023-10-19T13:40:35;16.90;72.20
30304;DHT22;17112;48.636;10.152;2023-10-19T13:43:02;16.80;72.20
30304;DHT22;17112;48.636;10.152;2023-10-19T13:45:31;16.80;72.30
30304;DHT22;17112;48.636;10.152;2023-10-19T13:47:58;16.80;72.50
30304;DHT22;17112;48.636;10.152;2023-10-19T13:50:24;16.80;72.60
30304;DHT22;17112;48.636;10.152;2023-10-19T13:52:52;16.80;72.70
30304;DHT22;17112;48.636;10.152;2023-10-19T13:55:19;16.80;72.90
30304;DHT22;17112;48.636;10.152;2023-10-19T13:57:46;16.80;72.90
30304;DHT22;17112;48.636;10.152;2023-10-19T14:00:14;16.80;73.10
30304;DHT22;17112;48.636;10.152;2023-10-19T14:03:03;16.80;73.20
30304;DHT22;17112;48.636;10.152;2023-10-19T14:05:40;16.80;73.20
30304;DHT22;17112;48.636;10.152;2023-10-19T14:08:08;16.80;73.30
30304;DHT22;17112;48.636;10.152;2023-10-19T14:10:35;16.80;73.30
30304;DHT22;17112;48.636;10.152;2023-10-19T14:13:01;16.80;73.40
30304;DHT22;17112;48.636;10.152;2023-10-19T14:15:27;16.80;73.40
30304;DHT22;17112;48.636;10.152;2023-10-19T14:17:56;16.90;73.50
30304;DHT22;17112;48.636;10.152;2023-10-19T14:20:24;16.90;73.70
30304;DHT22;17112;48.636;10.152;2023-10-19T14:22:50;16.90;73.70
30304;DHT22;17112;48.636;10.152;2023-10-19T14:25:17;16.90;73.80
30304;DHT22;17112;48.636;10.152;2023-10-19T14:27:46;16.90;73.80
30304;DHT22;17112;48.636;10.152;2023-10-19T14:30:15;16.90;73.80
30304;DHT22;17112;48.636;10.152;2023-10-19T14:32:45;16.90;73.80
30304;DHT22;17112;48.636;10.152;2023-10-19T14:35:16;16.90;74.00
30304;DHT22;17112;48.636;10.152;2023-10-19T14:37:45;16.90;73.90
30304;DHT22;17112;48.636;10.152;2023-10-19T14:40:13;16.90;74.00
30304;DHT22;17112;48.636;10.152;2023-10-19T14:42:41;16.90;74.10
30304;DHT22;17112;48.636;10.152;2023-10-19T14:45:11;16.90;74.10
30304;DHT22;17112;48.636;10.152;2023-10-19T14:47:40;16.90;74.20
30304;DHT22;17112;48.636;10.152;2023-10-19T14:50:16;16.90;74.20
30304;DHT22;17112;48.636;10.152;2023-10-19T14:52:47;16.90;74.50
30304;DHT22;17112;48.636;10.152;2023-10-19T14:55:14;16.90;74.30
30304;DHT22;17112;48.636;10.152;2023-10-19T14:57:45;16.90;74.30
30304;DHT22;17112;48.636;10.152;2023-10-19T15:00:12;16.90;74.40
30304;DHT22;17112;48.636;10.152;2023-10-19T15:02:38;16.90;74.30
30304;DHT22;17112;48.636;10.152;2023-10-19T15:05:05;16.90;74.30
30304;DHT22;17112;48.636;10.152;2023-10-19T15:07:30;16.90;74.40
30304;DHT22;17112;48.636;10.152;2023-10-19T15:09:56;16.80;74.50
30304;DHT22;17112;48.636;10.152;2023-10-19T15:12:22;16.80;74.50
30304;DHT22;17112;48.636;10.152;2023-10-19T15:14:47;17.00;74.60
30304;DHT22;17112;48.636;10.152;2023-10-19T15:17:13;16.80;74.50
30304;DHT22;17112;48.636;10.152;2023-10-19T15:19:39;16.80;74.60
30304;DHT22;17112;48.636;10.152;2023-10-19T15:22:04;16.70;74.70
30304;DHT22;17112;48.636;10.152;2023-10-19T15:24:30;16.70;74.70
30304;DHT22;17112;48.636;10.152;2023-10-19T15:26:56;16.70;74.90
30304;DHT22;17112;48.636;10.152;2023-10-19T15:29:22;16.70;75.00
30304;DHT22;17112;48.636;10.152;2023-10-19T15:31:48;16.70;75.20
30304;DHT22;17112;48.636;10.152;2023-10-19T15:34:13;16.70;75.40
30304;DHT22;17112;48.636;10.152;2023-10-19T15:36:40;16.70;75.40
30304;DHT22;17112;48.636;10.152;2023-10-19T15:39:07;16.70;75.40
30304;DHT22;17112;48.636;10.152;2023-10-19T15:41:36;16.80;75.40
30304;DHT22;17112;48.636;10.152;2023-10-19T15:44:01;16.80;75.40
30304;DHT22;17112;48.636;10.152;2023-10-19T15:46:29;16.80;75.30
30304;DHT22;17112;48.636;10.152;2023-10-19T15:48:55;16.80;75.30